createdAt,value
2022-07-25T00:03:12.455Z,23.59
2022-07-25T00:10:19.041Z,23.44
2022-07-25T00:17:21.397Z,23.25
2022-07-25T00:24:25.006Z,23.20
2022-07-25T00:31:27.287Z,23.03
2022-07-25T00:38:29.586Z,23.04
2022-07-25T00:45:33.340Z,23.19
2022-07-25T00:52:35.631Z,23.15
2022-07-25T00:59:37.825Z,23.20
2022-07-25T01:06:41.420Z,23.14
2022-07-25T01:13:43.692Z,23.18
2022-07-25T01:20:47.551Z,23.13
2022-07-25T01:27:54.884Z,23.04
2022-07-25T01:34:57.891Z,22.99
2022-07-25T01:42:01.478Z,22.90
2022-07-25T01:49:03.795Z,22.71
2022-07-25T01:56:06.582Z,22.70
2022-07-25T02:03:30.519Z,22.72
2022-07-25T02:10:32.795Z,22.76
2022-07-25T02:17:35.012Z,22.75
2022-07-25T02:24:38.558Z,22.71
2022-07-25T02:31:40.835Z,22.71
2022-07-25T02:38:43.081Z,22.68
2022-07-25T02:45:46.688Z,22.70
2022-07-25T02:52:48.950Z,22.69
2022-07-25T02:59:51.177Z,22.65
2022-07-25T03:06:54.804Z,22.67
2022-07-25T03:13:57.862Z,22.67
2022-07-25T03:21:00.120Z,22.65
2022-07-25T03:28:03.906Z,22.64
2022-07-25T03:35:07.752Z,22.62
2022-07-25T03:42:10.031Z,22.53
2022-07-25T03:49:13.956Z,22.47
2022-07-25T03:56:16.378Z,22.40
2022-07-25T04:03:19.029Z,22.54
2022-07-25T04:10:23.668Z,22.74
2022-07-25T04:17:26.156Z,23.13
2022-07-25T04:24:28.728Z,23.48
2022-07-25T04:31:33.019Z,23.76
2022-07-25T04:38:35.469Z,24.19
2022-07-25T04:45:37.772Z,24.51
2022-07-25T04:52:42.052Z,25.20
2022-07-25T04:59:44.412Z,26.07
2022-07-25T05:06:46.641Z,26.16
2022-07-25T05:13:50.287Z,27.47
2022-07-25T05:20:52.572Z,27.28
2022-07-25T05:27:57.338Z,27.23
2022-07-25T05:35:00.923Z,28.12
2022-07-25T05:42:03.360Z,28.55
2022-07-25T05:49:05.640Z,29.07
2022-07-25T05:56:09.554Z,29.02
2022-07-25T06:03:11.820Z,29.25
2022-07-25T06:10:14.187Z,29.08
2022-07-25T06:17:17.822Z,28.51
2022-07-25T06:24:20.094Z,28.90
2022-07-25T06:31:24.557Z,28.86
2022-07-25T06:38:30.692Z,30.01
2022-07-25T06:45:33.014Z,29.99
2022-07-25T06:52:35.423Z,30.68
2022-07-25T06:59:39.026Z,32.02
2022-07-25T07:06:41.320Z,32.48
2022-07-25T07:13:43.659Z,32.67
2022-07-25T07:20:47.417Z,33.33
2022-07-25T07:27:49.914Z,33.51
2022-07-25T07:34:52.146Z,32.48
2022-07-25T07:41:55.805Z,32.93
2022-07-25T07:48:58.099Z,33.05
2022-07-25T07:56:00.473Z,33.06
2022-07-25T08:03:04.315Z,33.52
2022-07-25T08:10:07.852Z,33.41
2022-07-25T08:17:11.145Z,33.02
2022-07-25T08:24:16.686Z,32.97
2022-07-25T08:31:18.951Z,32.76
2022-07-25T08:38:24.620Z,33.17
2022-07-25T08:45:28.683Z,32.92
2022-07-25T08:52:31.755Z,33.07
2022-07-25T08:59:34.090Z,32.81
2022-07-25T09:06:49.078Z,33.34
2022-07-25T09:14:00.333Z,33.39
2022-07-25T09:21:03.285Z,33.60
2022-07-25T09:28:17.522Z,34.14
2022-07-25T09:35:30.026Z,33.39
2022-07-25T09:42:32.615Z,33.48
2022-07-25T09:49:40.830Z,33.65
2022-07-25T09:56:43.092Z,34.02
2022-07-25T10:03:50.855Z,33.52
2022-07-25T10:10:54.475Z,33.87
2022-07-25T10:18:03.449Z,34.47
2022-07-25T10:25:12.024Z,34.52
2022-07-25T10:32:18.777Z,34.86
2022-07-25T10:39:22.304Z,35.29
2022-07-25T10:46:27.197Z,34.99
2022-07-25T10:53:35.113Z,35.73
2022-07-25T11:00:43.270Z,35.27
2022-07-25T11:08:19.052Z,35.60
2022-07-25T11:15:17.397Z,36.44
2022-07-25T11:22:19.776Z,35.38
2022-07-25T11:29:22.385Z,35.82
2022-07-25T11:36:26.041Z,36.28
2022-07-25T11:43:28.404Z,36.41
2022-07-25T11:50:30.987Z,36.09
2022-07-25T11:57:37.847Z,36.35
2022-07-25T12:04:42.181Z,36.16
2022-07-25T12:11:44.497Z,36.58
2022-07-25T12:18:48.186Z,36.90
2022-07-25T12:25:50.495Z,37.34
2022-07-25T12:32:55.049Z,37.30
2022-07-25T12:39:58.792Z,36.56
2022-07-25T12:47:01.153Z,35.94
2022-07-25T12:54:03.903Z,35.87
2022-07-25T13:01:08.025Z,34.93
2022-07-25T13:08:10.500Z,34.34
2022-07-25T13:15:12.917Z,34.16
2022-07-25T13:22:16.460Z,33.73
2022-07-25T13:29:20.871Z,33.87
2022-07-25T13:36:23.127Z,33.42
2022-07-25T13:43:26.776Z,33.17
2022-07-25T13:50:29.004Z,33.21
2022-07-25T13:57:32.512Z,33.23
2022-07-25T14:04:36.079Z,33.08
2022-07-25T14:11:38.302Z,32.49
2022-07-25T14:18:40.555Z,32.36
2022-07-25T14:25:46.520Z,33.00
2022-07-25T14:32:49.407Z,33.32
2022-07-25T14:39:51.831Z,32.51
2022-07-25T14:46:56.624Z,31.82
2022-07-25T14:53:59.169Z,31.11
2022-07-25T15:01:01.543Z,31.02
2022-07-25T15:08:05.880Z,31.32
2022-07-25T15:15:08.522Z,30.75
2022-07-25T15:22:10.752Z,30.79
2022-07-25T15:29:20.444Z,31.00
2022-07-25T15:36:28.787Z,30.69
2022-07-25T15:43:33.347Z,30.66
2022-07-25T15:50:37.371Z,30.79
2022-07-25T15:57:39.652Z,30.80
2022-07-25T16:04:42.072Z,30.57
2022-07-25T16:11:45.653Z,30.42
2022-07-25T16:18:47.895Z,29.88
2022-07-25T16:25:50.174Z,29.48
2022-07-25T16:32:53.738Z,29.45
2022-07-25T16:39:55.948Z,29.19
2022-07-25T16:46:58.211Z,29.02
2022-07-25T16:54:03.355Z,28.93
2022-07-25T17:01:08.319Z,29.07
2022-07-25T17:08:12.832Z,28.86
2022-07-25T17:15:18.069Z,28.47
2022-07-25T17:22:20.682Z,28.32
2022-07-25T17:29:22.930Z,28.29
2022-07-25T17:36:26.544Z,28.52
2022-07-25T17:43:29.109Z,28.68
2022-07-25T17:50:31.446Z,28.50
2022-07-25T17:57:37.785Z,28.41
2022-07-25T18:04:42.198Z,28.39
2022-07-25T18:11:44.465Z,28.42
2022-07-25T18:18:50.662Z,28.40
2022-07-25T18:25:52.896Z,28.27
2022-07-25T18:32:55.166Z,28.07
2022-07-25T18:39:58.721Z,27.78
2022-07-25T18:47:01.100Z,27.39
2022-07-25T18:54:04.360Z,27.18
2022-07-25T19:01:10.727Z,26.83
2022-07-25T19:08:13.028Z,26.52
2022-07-25T19:15:15.264Z,26.26
2022-07-25T19:22:18.850Z,25.92
2022-07-25T19:29:21.133Z,25.66
2022-07-25T19:36:23.434Z,25.34
2022-07-25T19:43:27.009Z,25.20
2022-07-25T19:50:29.275Z,25.03
2022-07-25T19:57:31.647Z,24.87
2022-07-25T20:04:37.794Z,24.62
2022-07-25T20:11:42.724Z,24.47
2022-07-25T20:18:44.961Z,24.31
2022-07-25T20:25:48.533Z,24.11
2022-07-25T20:32:50.760Z,23.99
2022-07-25T20:39:53.035Z,23.90
2022-07-25T20:46:57.827Z,23.80
2022-07-25T20:54:00.030Z,23.65
2022-07-25T21:01:02.258Z,23.48
2022-07-25T21:08:06.780Z,23.39
2022-07-25T21:15:09.840Z,23.29
2022-07-25T21:22:12.723Z,23.14
2022-07-25T21:29:16.289Z,23.09
2022-07-25T21:36:18.529Z,22.98
2022-07-25T21:43:20.748Z,22.83
2022-07-25T21:50:43.722Z,22.77
2022-07-25T21:57:46.313Z,22.68
2022-07-25T22:04:48.544Z,22.56
2022-07-25T22:11:53.483Z,22.48
2022-07-25T22:18:57.161Z,22.33
2022-07-25T22:25:59.451Z,22.33
2022-07-25T22:33:03.007Z,22.30
2022-07-25T22:40:06.326Z,22.20
2022-07-25T22:47:08.569Z,22.06
2022-07-25T22:54:12.132Z,22.01
2022-07-25T23:01:14.344Z,21.96
2022-07-25T23:08:16.877Z,21.93
2022-07-25T23:15:20.476Z,21.80
2022-07-25T23:22:23.560Z,21.85
2022-07-25T23:29:25.915Z,21.82
2022-07-25T23:36:29.548Z,21.76
2022-07-25T23:43:57.428Z,21.72
2022-07-25T23:50:53.966Z,21.46
2022-07-25T23:57:57.510Z,21.32
